sensor_id;sensor_type;location;lat;lon;timestamp;pressure;altitude;pressure_sealevel;temperature;humidity
72262;BME280;60173;52.112;8.648;2023-08-17T00:00:34;100948.38;;;17.44;86.85
72262;BME280;60173;52.112;8.648;2023-08-17T00:03:00;100941.69;;;17.54;87.06
72262;BME280;60173;52.112;8.648;2023-08-17T00:05:27;100950.25;;;17.52;87.78
72262;BME280;60173;52.112;8.648;2023-08-17T00:07:53;100953.84;;;17.44;87.84
72262;BME280;60173;52.112;8.648;2023-08-17T00:10:19;100948.75;;;17.34;88.63
72262;BME280;60173;52.112;8.648;2023-08-17T00:12:46;100947.84;;;17.21;89.51
72262;BME280;60173;52.112;8.648;2023-08-17T00:15:12;100937.22;;;17.20;90.89
72262;BME280;60173;52.112;8.648;2023-08-17T00:17:38;100937.56;;;17.09;91.32
72262;BME280;60173;52.112;8.648;2023-08-17T00:20:05;100937.13;;;17.07;92.44
72262;BME280;60173;52.112;8.648;2023-08-17T00:22:32;100936.06;;;16.91;93.53
72262;BME280;60173;52.112;8.648;2023-08-17T00:24:58;100938.78;;;16.91;93.63
72262;BME280;60173;52.112;8.648;2023-08-17T00:27:25;100931.81;;;17.02;92.88
72262;BME280;60173;52.112;8.648;2023-08-17T00:29:52;100926.47;;;17.06;93.55
72262;BME280;60173;52.112;8.648;2023-08-17T00:32:18;100934.81;;;17.09;93.77
72262;BME280;60173;52.112;8.648;2023-08-17T00:34:46;100937.47;;;16.97;94.63
72262;BME280;60173;52.112;8.648;2023-08-17T00:37:12;100928.78;;;16.86;95.96
72262;BME280;60173;52.112;8.648;2023-08-17T00:39:39;100938.84;;;16.65;97.63
72262;BME280;60173;52.112;8.648;2023-08-17T00:42:05;100933.88;;;16.58;97.78
72262;BME280;60173;52.112;8.648;2023-08-17T00:44:32;100933.91;;;16.41;99.26
72262;BME280;60173;52.112;8.648;2023-08-17T00:46:58;100933.94;;;16.32;99.84
72262;BME280;60173;52.112;8.648;2023-08-17T00:49:25;100930.72;;;16.30;99.67
72262;BME280;60173;52.112;8.648;2023-08-17T00:51:52;100930.47;;;16.61;99.30
72262;BME280;60173;52.112;8.648;2023-08-17T00:54:23;100933.28;;;16.44;99.50
72262;BME280;60173;52.112;8.648;2023-08-17T00:56:51;100944.72;;;16.37;100.00
72262;BME280;60173;52.112;8.648;2023-08-17T00:59:18;100946.97;;;16.53;99.76
72262;BME280;60173;52.112;8.648;2023-08-17T01:01:46;100955.19;;;16.44;99.40
72262;BME280;60173;52.112;8.648;2023-08-17T01:04:12;100955.31;;;16.56;99.64
72262;BME280;60173;52.112;8.648;2023-08-17T01:06:39;100951.75;;;16.64;99.24
72262;BME280;60173;52.112;8.648;2023-08-17T01:09:05;100941.81;;;16.34;99.63
72262;BME280;60173;52.112;8.648;2023-08-17T01:11:41;100937.34;;;16.20;100.00
72262;BME280;60173;52.112;8.648;2023-08-17T01:17:00;100929.44;;;16.10;100.00
72262;BME280;60173;52.112;8.648;2023-08-17T01:19:29;100928.94;;;16.17;100.00
72262;BME280;60173;52.112;8.648;2023-08-17T01:22:00;100931.88;;;16.12;100.00
72262;BME280;60173;52.112;8.648;2023-08-17T01:24:29;100925.91;;;16.01;100.00
72262;BME280;60173;52.112;8.648;2023-08-17T01:26:55;100924.13;;;15.96;100.00
72262;BME280;60173;52.112;8.648;2023-08-17T01:29:22;100923.00;;;15.89;100.00
72262;BME280;60173;52.112;8.648;2023-08-17T01:32:07;100925.91;;;15.84;100.00
72262;BME280;60173;52.112;8.648;2023-08-17T01:34:40;100931.69;;;15.99;100.00
72262;BME280;60173;52.112;8.648;2023-08-17T01:37:11;100928.50;;;15.97;100.00
72262;BME280;60173;52.112;8.648;2023-08-17T01:39:42;100936.53;;;15.94;100.00
72262;BME280;60173;52.112;8.648;2023-08-17T01:42:10;100931.88;;;15.86;100.00
72262;BME280;60173;52.112;8.648;2023-08-17T01:44:39;100922.03;;;16.02;100.00
72262;BME280;60173;52.112;8.648;2023-08-17T01:47:05;100919.78;;;15.87;100.00
72262;BME280;60173;52.112;8.648;2023-08-17T01:49:32;100915.59;;;15.80;100.00
72262;BME280;60173;52.112;8.648;2023-08-17T01:51:58;100900.56;;;15.60;100.00
72262;BME280;60173;52.112;8.648;2023-08-17T01:54:24;100907.00;;;15.65;100.00
72262;BME280;60173;52.112;8.648;2023-08-17T01:56:51;100898.78;;;15.47;100.00
72262;BME280;60173;52.112;8.648;2023-08-17T01:59:17;100902.16;;;15.53;100.00
72262;BME280;60173;52.112;8.648;2023-08-17T02:01:44;100901.72;;;15.51;100.00
72262;BME280;60173;52.112;8.648;2023-08-17T02:04:10;100912.16;;;15.49;100.00
72262;BME280;60173;52.112;8.648;2023-08-17T02:06:36;100917.00;;;15.52;100.00
72262;BME280;60173;52.112;8.648;2023-08-17T02:09:03;100923.66;;;15.68;100.00
72262;BME280;60173;52.112;8.648;2023-08-17T02:11:29;100926.34;;;15.59;100.00
72262;BME280;60173;52.112;8.648;2023-08-17T02:13:55;100925.06;;;15.66;100.00
72262;BME280;60173;52.112;8.648;2023-08-17T02:16:22;100923.28;;;15.61;100.00
72262;BME280;60173;52.112;8.648;2023-08-17T02:18:48;100931.38;;;15.84;100.00
72262;BME280;60173;52.112;8.648;2023-08-17T02:21:14;100924.31;;;15.82;100.00
72262;BME280;60173;52.112;8.648;2023-08-17T02:23:41;100918.19;;;15.68;100.00
72262;BME280;60173;52.112;8.648;2023-08-17T02:26:07;100930.25;;;15.76;100.00
72262;BME280;60173;52.112;8.648;2023-08-17T02:28:34;100927.00;;;15.65;100.00
72262;BME280;60173;52.112;8.648;2023-08-17T02:31:00;100929.44;;;15.75;100.00
72262;BME280;60173;52.112;8.648;2023-08-17T02:33:27;100937.03;;;15.96;100.00
72262;BME280;60173;52.112;8.648;2023-08-17T02:35:53;100937.50;;;16.15;100.00
72262;BME280;60173;52.112;8.648;2023-08-17T02:38:20;100932.66;;;16.21;100.00
72262;BME280;60173;52.112;8.648;2023-08-17T02:40:48;100929.94;;;16.12;100.00
72262;BME280;60173;52.112;8.648;2023-08-17T02:43:15;100931.97;;;16.41;100.00
72262;BME280;60173;52.112;8.648;2023-08-17T02:45:41;100926.44;;;16.67;100.00
72262;BME280;60173;52.112;8.648;2023-08-17T02:48:08;100922.00;;;16.28;100.00
72262;BME280;60173;52.112;8.648;2023-08-17T02:50:34;100910.44;;;15.96;100.00
72262;BME280;60173;52.112;8.648;2023-08-17T02:53:00;100916.72;;;16.23;100.00
72262;BME280;60173;52.112;8.648;2023-08-17T02:55:27;100920.66;;;16.52;100.00
72262;BME280;60173;52.112;8.648;2023-08-17T02:57:53;100919.50;;;16.61;100.00
72262;BME280;60173;52.112;8.648;2023-08-17T03:00:20;100916.00;;;16.52;100.00
72262;BME280;60173;52.112;8.648;2023-08-17T03:02:46;100902.00;;;16.27;100.00
72262;BME280;60173;52.112;8.648;2023-08-17T03:05:13;100900.75;;;15.90;100.00
72262;BME280;60173;52.112;8.648;2023-08-17T03:07:39;100902.72;;;15.81;100.00
72262;BME280;60173;52.112;8.648;2023-08-17T03:10:06;100908.97;;;15.90;100.00
72262;BME280;60173;52.112;8.648;2023-08-17T03:12:32;100910.28;;;15.93;100.00
72262;BME280;60173;52.112;8.648;2023-08-17T03:14:59;100909.31;;;16.15;100.00
72262;BME280;60173;52.112;8.648;2023-08-17T03:17:25;100910.72;;;16.30;100.00
72262;BME280;60173;52.112;8.648;2023-08-17T03:19:52;100910.53;;;16.43;100.00
72262;BME280;60173;52.112;8.648;2023-08-17T03:22:18;100904.88;;;16.40;100.00
72262;BME280;60173;52.112;8.648;2023-08-17T03:24:45;100903.81;;;16.15;100.00
72262;BME280;60173;52.112;8.648;2023-08-17T03:27:11;100898.16;;;16.11;100.00
72262;BME280;60173;52.112;8.648;2023-08-17T03:29:37;100897.06;;;16.03;100.00
72262;BME280;60173;52.112;8.648;2023-08-17T03:32:04;100906.72;;;16.10;100.00
72262;BME280;60173;52.112;8.648;2023-08-17T03:34:30;100892.53;;;16.16;100.00
72262;BME280;60173;52.112;8.648;2023-08-17T03:36:57;100891.09;;;16.01;100.00
72262;BME280;60173;52.112;8.648;2023-08-17T03:39:23;100893.31;;;16.25;100.00
72262;BME280;60173;52.112;8.648;2023-08-17T03:41:50;100895.13;;;16.04;100.00
72262;BME280;60173;52.112;8.648;2023-08-17T03:44:16;100892.03;;;16.23;100.00
72262;BME280;60173;52.112;8.648;2023-08-17T03:46:42;100895.25;;;16.16;100.00
72262;BME280;60173;52.112;8.648;2023-08-17T03:49:09;100892.41;;;15.87;100.00
72262;BME280;60173;52.112;8.648;2023-08-17T03:51:35;100897.22;;;15.90;100.00
72262;BME280;60173;52.112;8.648;2023-08-17T03:54:02;100890.63;;;15.82;100.00
72262;BME280;60173;52.112;8.648;2023-08-17T03:56:28;100893.69;;;15.80;100.00
72262;BME280;60173;52.112;8.648;2023-08-17T03:58:54;100890.94;;;15.80;100.00
72262;BME280;60173;52.112;8.648;2023-08-17T04:01:21;100895.94;;;15.78;100.00
72262;BME280;60173;52.112;8.648;2023-08-17T04:03:47;100888.06;;;15.77;100.00
72262;BME280;60173;52.112;8.648;2023-08-17T04:06:14;100888.22;;;15.80;100.00
72262;BME280;60173;52.112;8.648;2023-08-17T04:08:40;100895.75;;;15.57;100.00
72262;BME280;60173;52.112;8.648;2023-08-17T04:11:07;100896.53;;;15.58;100.00
72262;BME280;60173;52.112;8.648;2023-08-17T04:13:33;100890.91;;;15.46;100.00
72262;BME280;60173;52.112;8.648;2023-08-17T04:15:59;100889.59;;;15.34;100.00
72262;BME280;60173;52.112;8.648;2023-08-17T04:18:26;100881.53;;;15.29;100.00
72262;BME280;60173;52.112;8.648;2023-08-17T04:20:52;100885.06;;;15.30;100.00
72262;BME280;60173;52.112;8.648;2023-08-17T04:23:20;100876.72;;;15.35;100.00
72262;BME280;60173;52.112;8.648;2023-08-17T04:25:47;100879.78;;;15.33;100.00
72262;BME280;60173;52.112;8.648;2023-08-17T04:28:14;100878.31;;;15.36;100.00
72262;BME280;60173;52.112;8.648;2023-08-17T04:30:42;100881.88;;;15.28;100.00
72262;BME280;60173;52.112;8.648;2023-08-17T04:33:08;100889.75;;;15.29;100.00
72262;BME280;60173;52.112;8.648;2023-08-17T04:35:35;100888.94;;;15.29;100.00
72262;BME280;60173;52.112;8.648;2023-08-17T04:38:01;100895.84;;;15.26;100.00
72262;BME280;60173;52.112;8.648;2023-08-17T04:40:28;100904.25;;;15.38;100.00
72262;BME280;60173;52.112;8.648;2023-08-17T04:42:54;100907.47;;;15.32;100.00
72262;BME280;60173;52.112;8.648;2023-08-17T04:45:21;100907.31;;;15.37;100.00
72262;BME280;60173;52.112;8.648;2023-08-17T04:47:47;100907.19;;;15.51;100.00
72262;BME280;60173;52.112;8.648;2023-08-17T04:50:13;100910.06;;;15.54;100.00
72262;BME280;60173;52.112;8.648;2023-08-17T04:52:40;100913.63;;;15.55;100.00
72262;BME280;60173;52.112;8.648;2023-08-17T04:55:06;100912.66;;;15.59;100.00
72262;BME280;60173;52.112;8.648;2023-08-17T04:57:33;100909.41;;;15.49;100.00
72262;BME280;60173;52.112;8.648;2023-08-17T04:59:59;100912.47;;;15.56;100.00
72262;BME280;60173;52.112;8.648;2023-08-17T05:02:25;100906.25;;;15.81;100.00
72262;BME280;60173;52.112;8.648;2023-08-17T05:04:52;100906.22;;;15.64;100.00
72262;BME280;60173;52.112;8.648;2023-08-17T05:07:18;100903.50;;;15.81;100.00
72262;BME280;60173;52.112;8.648;2023-08-17T05:09:45;100899.16;;;15.89;100.00
72262;BME280;60173;52.112;8.648;2023-08-17T05:12:11;100897.88;;;15.87;100.00
72262;BME280;60173;52.112;8.648;2023-08-17T05:14:38;100901.75;;;15.86;100.00
72262;BME280;60173;52.112;8.648;2023-08-17T05:17:04;100909.47;;;15.84;100.00
72262;BME280;60173;52.112;8.648;2023-08-17T05:19:30;100906.09;;;15.95;100.00
72262;BME280;60173;52.112;8.648;2023-08-17T05:21:57;100917.69;;;15.84;100.00
72262;BME280;60173;52.112;8.648;2023-08-17T05:24:24;100923.66;;;15.86;100.00
72262;BME280;60173;52.112;8.648;2023-08-17T05:26:50;100923.97;;;16.01;100.00
72262;BME280;60173;52.112;8.648;2023-08-17T05:29:17;100929.94;;;15.95;100.00
72262;BME280;60173;52.112;8.648;2023-08-17T05:31:43;100924.63;;;15.90;100.00
72262;BME280;60173;52.112;8.648;2023-08-17T05:34:09;100926.56;;;15.80;100.00
72262;BME280;60173;52.112;8.648;2023-08-17T05:36:36;100932.66;;;15.69;100.00
72262;BME280;60173;52.112;8.648;2023-08-17T05:39:02;100930.44;;;15.79;100.00
72262;BME280;60173;52.112;8.648;2023-08-17T05:41:29;100930.91;;;15.90;100.00
72262;BME280;60173;52.112;8.648;2023-08-17T05:43:55;100925.56;;;16.11;100.00
72262;BME280;60173;52.112;8.648;2023-08-17T05:46:22;100927.03;;;16.00;100.00
72262;BME280;60173;52.112;8.648;2023-08-17T05:48:48;100930.72;;;16.21;100.00
72262;BME280;60173;52.112;8.648;2023-08-17T05:51:14;100929.56;;;16.31;100.00
72262;BME280;60173;52.112;8.648;2023-08-17T05:53:41;100926.50;;;16.33;100.00
72262;BME280;60173;52.112;8.648;2023-08-17T05:56:07;100922.16;;;16.40;100.00
72262;BME280;60173;52.112;8.648;2023-08-17T05:58:33;100927.63;;;16.49;100.00
72262;BME280;60173;52.112;8.648;2023-08-17T06:01:07;100931.00;;;16.46;100.00
72262;BME280;60173;52.112;8.648;2023-08-17T06:03:34;100932.13;;;16.45;100.00
72262;BME280;60173;52.112;8.648;2023-08-17T06:06:01;100925.78;;;16.70;100.00
72262;BME280;60173;52.112;8.648;2023-08-17T06:08:28;100927.09;;;16.64;100.00
72262;BME280;60173;52.112;8.648;2023-08-17T06:10:54;100925.88;;;16.27;100.00
72262;BME280;60173;52.112;8.648;2023-08-17T06:13:21;100922.81;;;16.11;100.00
72262;BME280;60173;52.112;8.648;2023-08-17T06:15:47;100928.47;;;16.15;100.00
72262;BME280;60173;52.112;8.648;2023-08-17T06:18:14;100932.31;;;16.22;100.00
72262;BME280;60173;52.112;8.648;2023-08-17T06:20:41;100934.81;;;16.62;100.00
72262;BME280;60173;52.112;8.648;2023-08-17T06:23:07;100928.34;;;16.76;100.00
72262;BME280;60173;52.112;8.648;2023-08-17T06:25:34;100932.84;;;16.71;100.00
72262;BME280;60173;52.112;8.648;2023-08-17T06:28:01;100929.66;;;16.69;100.00
72262;BME280;60173;52.112;8.648;2023-08-17T06:30:27;100932.28;;;16.48;100.00
72262;BME280;60173;52.112;8.648;2023-08-17T06:32:53;100932.63;;;16.47;100.00
72262;BME280;60173;52.112;8.648;2023-08-17T06:35:20;100931.34;;;16.36;100.00
72262;BME280;60173;52.112;8.648;2023-08-17T06:37:46;100928.13;;;16.34;100.00
72262;BME280;60173;52.112;8.648;2023-08-17T06:40:13;100924.91;;;16.40;100.00
72262;BME280;60173;52.112;8.648;2023-08-17T06:42:39;100917.75;;;16.48;100.00
72262;BME280;60173;52.112;8.648;2023-08-17T06:45:06;100918.59;;;16.40;100.00
72262;BME280;60173;52.112;8.648;2023-08-17T06:47:33;100919.19;;;16.54;100.00
72262;BME280;60173;52.112;8.648;2023-08-17T06:49:59;100921.13;;;16.62;100.00
72262;BME280;60173;52.112;8.648;2023-08-17T06:52:26;100919.88;;;16.34;100.00
72262;BME280;60173;52.112;8.648;2023-08-17T06:54:52;100921.94;;;16.54;100.00
72262;BME280;60173;52.112;8.648;2023-08-17T06:57:18;100916.97;;;16.47;100.00
72262;BME280;60173;52.112;8.648;2023-08-17T06:59:45;100917.44;;;16.58;100.00
72262;BME280;60173;52.112;8.648;2023-08-17T07:02:11;100927.88;;;16.65;100.00
72262;BME280;60173;52.112;8.648;2023-08-17T07:04:37;100927.78;;;16.44;100.00
72262;BME280;60173;52.112;8.648;2023-08-17T07:07:04;100932.75;;;16.59;100.00
72262;BME280;60173;52.112;8.648;2023-08-17T07:09:30;100938.88;;;16.56;100.00
72262;BME280;60173;52.112;8.648;2023-08-17T07:11:57;100942.53;;;16.69;100.00
72262;BME280;60173;52.112;8.648;2023-08-17T07:14:23;100946.91;;;16.70;100.00
72262;BME280;60173;52.112;8.648;2023-08-17T07:16:49;100952.19;;;16.92;100.00
72262;BME280;60173;52.112;8.648;2023-08-17T07:19:16;100951.28;;;17.09;100.00
72262;BME280;60173;52.112;8.648;2023-08-17T07:21:42;100956.88;;;16.83;100.00
72262;BME280;60173;52.112;8.648;2023-08-17T07:24:13;100955.78;;;16.67;100.00
72262;BME280;60173;52.112;8.648;2023-08-17T07:26:40;100951.66;;;16.52;100.00
72262;BME280;60173;52.112;8.648;2023-08-17T07:29:07;100946.13;;;16.69;100.00
72262;BME280;60173;52.112;8.648;2023-08-17T07:31:33;100954.34;;;16.69;100.00
72262;BME280;60173;52.112;8.648;2023-08-17T07:34:00;100951.91;;;16.77;100.00
72262;BME280;60173;52.112;8.648;2023-08-17T07:36:26;100956.16;;;17.04;100.00
72262;BME280;60173;52.112;8.648;2023-08-17T07:38:53;100951.78;;;17.11;100.00
72262;BME280;60173;52.112;8.648;2023-08-17T07:41:19;100951.69;;;17.29;100.00
72262;BME280;60173;52.112;8.648;2023-08-17T07:43:46;100953.63;;;17.58;100.00
72262;BME280;60173;52.112;8.648;2023-08-17T07:46:12;100952.75;;;17.45;100.00
72262;BME280;60173;52.112;8.648;2023-08-17T07:48:39;100949.41;;;17.60;100.00
72262;BME280;60173;52.112;8.648;2023-08-17T07:51:05;100948.25;;;17.61;100.00
72262;BME280;60173;52.112;8.648;2023-08-17T07:53:31;100941.28;;;17.43;100.00
72262;BME280;60173;52.112;8.648;2023-08-17T07:55:58;100953.03;;;17.23;100.00
72262;BME280;60173;52.112;8.648;2023-08-17T07:58:24;100957.19;;;17.29;100.00
72262;BME280;60173;52.112;8.648;2023-08-17T08:00:51;100958.22;;;17.15;100.00
72262;BME280;60173;52.112;8.648;2023-08-17T08:03:18;100958.75;;;17.00;100.00
72262;BME280;60173;52.112;8.648;2023-08-17T08:05:44;100964.78;;;16.93;100.00
72262;BME280;60173;52.112;8.648;2023-08-17T08:08:11;100975.72;;;17.02;100.00
72262;BME280;60173;52.112;8.648;2023-08-17T08:10:37;100970.72;;;17.04;100.00
72262;BME280;60173;52.112;8.648;2023-08-17T08:13:04;100969.66;;;17.17;100.00
72262;BME280;60173;52.112;8.648;2023-08-17T08:15:30;100966.69;;;17.02;100.00
72262;BME280;60173;52.112;8.648;2023-08-17T08:17:56;100966.88;;;17.26;100.00
72262;BME280;60173;52.112;8.648;2023-08-17T08:20:23;100966.72;;;17.52;100.00
72262;BME280;60173;52.112;8.648;2023-08-17T08:22:49;100971.28;;;17.48;100.00
72262;BME280;60173;52.112;8.648;2023-08-17T08:25:16;100964.59;;;18.09;100.00
72262;BME280;60173;52.112;8.648;2023-08-17T08:27:42;100959.06;;;17.67;100.00
72262;BME280;60173;52.112;8.648;2023-08-17T08:30:09;100966.53;;;17.57;100.00
72262;BME280;60173;52.112;8.648;2023-08-17T08:32:35;100964.47;;;17.54;100.00
72262;BME280;60173;52.112;8.648;2023-08-17T08:35:02;100962.31;;;17.39;100.00
72262;BME280;60173;52.112;8.648;2023-08-17T08:37:29;100968.41;;;17.45;100.00
72262;BME280;60173;52.112;8.648;2023-08-17T08:39:58;100958.78;;;17.30;100.00
72262;BME280;60173;52.112;8.648;2023-08-17T08:42:25;100966.78;;;17.14;100.00
72262;BME280;60173;52.112;8.648;2023-08-17T08:44:51;100958.66;;;17.26;100.00
72262;BME280;60173;52.112;8.648;2023-08-17T08:47:18;100969.13;;;17.33;100.00
72262;BME280;60173;52.112;8.648;2023-08-17T08:50:00;100967.00;;;17.30;100.00
72262;BME280;60173;52.112;8.648;2023-08-17T08:52:34;100964.47;;;17.54;100.00
72262;BME280;60173;52.112;8.648;2023-08-17T08:55:17;100956.16;;;17.42;100.00
72262;BME280;60173;52.112;8.648;2023-08-17T08:57:46;100955.38;;;17.62;100.00
72262;BME280;60173;52.112;8.648;2023-08-17T09:00:18;100952.56;;;17.71;100.00
72262;BME280;60173;52.112;8.648;2023-08-17T09:02:45;100946.63;;;17.90;100.00
72262;BME280;60173;52.112;8.648;2023-08-17T09:05:11;100949.78;;;18.01;100.00
72262;BME280;60173;52.112;8.648;2023-08-17T09:07:39;100943.41;;;17.88;100.00
72262;BME280;60173;52.112;8.648;2023-08-17T09:10:06;100935.84;;;17.85;100.00
72262;BME280;60173;52.112;8.648;2023-08-17T09:12:32;100944.41;;;18.04;100.00
72262;BME280;60173;52.112;8.648;2023-08-17T09:15:06;100943.81;;;17.99;100.00
72262;BME280;60173;52.112;8.648;2023-08-17T09:17:33;100938.84;;;17.92;100.00
72262;BME280;60173;52.112;8.648;2023-08-17T09:19:59;100940.09;;;18.16;100.00
72262;BME280;60173;52.112;8.648;2023-08-17T09:22:42;100937.19;;;18.33;100.00
72262;BME280;60173;52.112;8.648;2023-08-17T09:25:22;100940.72;;;18.34;100.00
72262;BME280;60173;52.112;8.648;2023-08-17T09:27:48;100927.34;;;18.32;99.78
72262;BME280;60173;52.112;8.648;2023-08-17T09:30:15;100933.69;;;18.12;100.00
72262;BME280;60173;52.112;8.648;2023-08-17T09:32:47;100927.38;;;18.11;100.00
72262;BME280;60173;52.112;8.648;2023-08-17T09:35:13;100931.66;;;18.21;100.00
72262;BME280;60173;52.112;8.648;2023-08-17T09:37:40;100932.88;;;18.11;100.00
72262;BME280;60173;52.112;8.648;2023-08-17T09:40:07;100932.97;;;17.73;100.00
72262;BME280;60173;52.112;8.648;2023-08-17T09:42:36;100929.53;;;17.84;100.00
72262;BME280;60173;52.112;8.648;2023-08-17T09:45:05;100930.06;;;17.78;100.00
72262;BME280;60173;52.112;8.648;2023-08-17T09:47:31;100930.47;;;17.68;100.00
72262;BME280;60173;52.112;8.648;2023-08-17T09:49:58;100935.34;;;17.62;100.00
72262;BME280;60173;52.112;8.648;2023-08-17T09:52:24;100938.16;;;17.53;100.00
72262;BME280;60173;52.112;8.648;2023-08-17T09:54:52;100938.03;;;17.41;100.00
72262;BME280;60173;52.112;8.648;2023-08-17T09:57:19;100935.25;;;17.50;100.00
72262;BME280;60173;52.112;8.648;2023-08-17T09:59:48;100937.00;;;17.54;100.00
72262;BME280;60173;52.112;8.648;2023-08-17T10:02:20;100929.25;;;17.77;100.00
72262;BME280;60173;52.112;8.648;2023-08-17T10:04:50;100928.78;;;17.96;100.00
72262;BME280;60173;52.112;8.648;2023-08-17T10:07:19;100933.41;;;18.04;100.00
72262;BME280;60173;52.112;8.648;2023-08-17T10:09:52;100927.75;;;18.22;100.00
72262;BME280;60173;52.112;8.648;2023-08-17T10:12:19;100933.53;;;18.29;99.78
72262;BME280;60173;52.112;8.648;2023-08-17T10:14:55;100932.44;;;17.88;100.00
72262;BME280;60173;52.112;8.648;2023-08-17T10:17:31;100929.94;;;17.95;100.00
72262;BME280;60173;52.112;8.648;2023-08-17T10:20:01;100937.84;;;17.97;100.00
72262;BME280;60173;52.112;8.648;2023-08-17T10:25:00;100937.97;;;18.00;100.00
72262;BME280;60173;52.112;8.648;2023-08-17T10:27:27;100939.66;;;17.93;100.00
72262;BME280;60173;52.112;8.648;2023-08-17T10:29:53;100937.97;;;18.00;100.00
72262;BME280;60173;52.112;8.648;2023-08-17T10:32:22;100935.03;;;18.05;100.00
72262;BME280;60173;52.112;8.648;2023-08-17T10:34:51;100936.63;;;18.06;100.00
72262;BME280;60173;52.112;8.648;2023-08-17T10:37:19;100934.69;;;17.86;100.00
72262;BME280;60173;52.112;8.648;2023-08-17T10:39:47;100941.72;;;17.96;100.00
72262;BME280;60173;52.112;8.648;2023-08-17T10:42:14;100934.47;;;18.12;100.00
72262;BME280;60173;52.112;8.648;2023-08-17T10:44:47;100949.66;;;18.30;100.00
72262;BME280;60173;52.112;8.648;2023-08-17T10:47:24;100944.44;;;17.75;100.00
72262;BME280;60173;52.112;8.648;2023-08-17T10:50:05;100948.72;;;17.43;100.00
72262;BME280;60173;52.112;8.648;2023-08-17T10:52:36;100950.66;;;17.42;100.00
72262;BME280;60173;52.112;8.648;2023-08-17T10:55:07;100949.31;;;17.48;100.00
72262;BME280;60173;52.112;8.648;2023-08-17T10:57:36;100953.75;;;17.61;100.00
72262;BME280;60173;52.112;8.648;2023-08-17T11:00:19;100955.50;;;17.66;100.00
72262;BME280;60173;52.112;8.648;2023-08-17T11:03:06;100961.59;;;17.72;100.00
72262;BME280;60173;52.112;8.648;2023-08-17T11:05:46;100968.41;;;17.45;100.00
72262;BME280;60173;52.112;8.648;2023-08-17T11:08:33;100966.97;;;17.68;100.00
72262;BME280;60173;52.112;8.648;2023-08-17T11:11:09;100965.16;;;17.72;100.00
72262;BME280;60173;52.112;8.648;2023-08-17T11:13:40;100960.44;;;17.52;100.00
72262;BME280;60173;52.112;8.648;2023-08-17T11:16:08;100960.88;;;17.33;100.00
72262;BME280;60173;52.112;8.648;2023-08-17T11:18:35;100973.75;;;17.41;100.00
72262;BME280;60173;52.112;8.648;2023-08-17T11:21:03;100969.28;;;17.57;100.00
72262;BME280;60173;52.112;8.648;2023-08-17T11:23:31;100970.00;;;17.96;100.00
72262;BME280;60173;52.112;8.648;2023-08-17T11:25:58;100967.88;;;17.81;100.00
72262;BME280;60173;52.112;8.648;2023-08-17T11:28:25;100972.31;;;17.94;100.00
72262;BME280;60173;52.112;8.648;2023-08-17T11:31:02;100971.34;;;17.90;100.00
72262;BME280;60173;52.112;8.648;2023-08-17T11:33:30;100972.31;;;17.94;100.00
72262;BME280;60173;52.112;8.648;2023-08-17T11:35:58;100969.06;;;18.13;100.00
72262;BME280;60173;52.112;8.648;2023-08-17T11:38:35;100968.75;;;18.15;100.00
72262;BME280;60173;52.112;8.648;2023-08-17T11:41:02;100961.94;;;18.33;99.75
72262;BME280;60173;52.112;8.648;2023-08-17T11:43:29;100967.31;;;18.29;99.30
72262;BME280;60173;52.112;8.648;2023-08-17T11:45:56;100972.00;;;18.29;98.82
72262;BME280;60173;52.112;8.648;2023-08-17T11:48:24;100969.59;;;18.27;99.82
72262;BME280;60173;52.112;8.648;2023-08-17T11:50:51;100974.56;;;18.34;99.57
72262;BME280;60173;52.112;8.648;2023-08-17T11:53:17;100965.50;;;18.13;99.42
72262;BME280;60173;52.112;8.648;2023-08-17T11:55:44;100975.09;;;18.27;99.87
72262;BME280;60173;52.112;8.648;2023-08-17T11:58:10;100962.44;;;18.14;100.00
72262;BME280;60173;52.112;8.648;2023-08-17T12:00:41;100968.88;;;17.97;100.00
72262;BME280;60173;52.112;8.648;2023-08-17T12:03:08;100965.13;;;17.81;100.00
72262;BME280;60173;52.112;8.648;2023-08-17T12:05:38;100958.19;;;17.75;100.00
72262;BME280;60173;52.112;8.648;2023-08-17T12:08:07;100958.09;;;17.92;100.00
72262;BME280;60173;52.112;8.648;2023-08-17T12:10:34;100962.25;;;17.98;100.00
72262;BME280;60173;52.112;8.648;2023-08-17T12:13:01;100968.16;;;17.88;100.00
72262;BME280;60173;52.112;8.648;2023-08-17T12:15:32;100963.47;;;17.89;100.00
72262;BME280;60173;52.112;8.648;2023-08-17T12:18:00;100967.19;;;18.05;99.95
72262;BME280;60173;52.112;8.648;2023-08-17T12:20:26;100968.59;;;17.90;99.08
72262;BME280;60173;52.112;8.648;2023-08-17T12:22:53;100969.56;;;17.94;99.84
72262;BME280;60173;52.112;8.648;2023-08-17T12:25:23;100967.72;;;17.98;99.24
72262;BME280;60173;52.112;8.648;2023-08-17T12:27:50;100965.94;;;18.02;99.38
72262;BME280;60173;52.112;8.648;2023-08-17T12:30:30;100969.88;;;18.14;97.95
72262;BME280;60173;52.112;8.648;2023-08-17T12:32:58;100968.91;;;18.30;96.64
72262;BME280;60173;52.112;8.648;2023-08-17T12:35:25;100967.31;;;18.29;96.93
72262;BME280;60173;52.112;8.648;2023-08-17T12:37:52;100955.50;;;18.29;95.26
72262;BME280;60173;52.112;8.648;2023-08-17T12:40:19;100964.88;;;18.28;96.79
72262;BME280;60173;52.112;8.648;2023-08-17T12:42:46;100963.75;;;18.29;96.23
72262;BME280;60173;52.112;8.648;2023-08-17T12:45:13;100963.63;;;18.04;96.25
72262;BME280;60173;52.112;8.648;2023-08-17T12:47:40;100964.50;;;18.17;97.17